Time;durP1;ratioP1;P1;durP2;ratioP2;P2;SDS_P1;SDS_P2;PMS_P1;PMS_P2;Temp;Humidity;BMP_temperature;BMP_pressure;BME280_temperature;BME280_humidity;BME280_pressure;Samples;Min_cycle;Max_cycle;Signal;HPM_P1;HPM_P2
2022/02/01 00:03:04;;;;;;;;;;;1.80;79.00;;;;;;5021179;28;93060;-44
2022/02/01 00:05:43;;;;;;;;;;;1.80;79.00;;;;;;5020469;28;92234;-48
2022/02/01 00:16:15;;;;;;;;;;;1.80;79.00;;;;;;5024404;28;92502;-50
2022/02/01 00:18:59;;;;;;;;;;;1.70;78.90;;;;;;5021428;28;91324;-45
2022/02/01 00:37:49;;;;;;;;;;;1.70;79.00;;;;;;5020030;28;92263;-44
2022/02/01 00:40:15;;;;;;;;;;;1.70;79.00;;;;;;5023918;28;94314;-45
2022/02/01 00:42:40;;;;;;;;;;;1.70;79.00;;;;;;5020588;28;93939;-47
2022/02/01 00:45:06;;;;;;;;;;;1.70;79.00;;;;;;5021320;28;93886;-46
2022/02/01 00:47:32;;;;;;;;;;;1.70;79.00;;;;;;5020815;28;92142;-44
2022/02/01 00:49:57;;;;;;;;;;;1.70;79.00;;;;;;5021006;28;94038;-46
2022/02/01 00:52:25;;;;;;;;;;;1.70;79.00;;;;;;5019858;28;95953;-45
2022/02/01 00:54:51;;;;;;;;;;;1.70;78.90;;;;;;5020850;28;92129;-48
2022/02/01 00:57:18;;;;;;;;;;;1.70;79.00;;;;;;5020738;28;93821;-44
2022/02/01 00:59:43;;;;;;;;;;;1.70;78.90;;;;;;5020275;28;94646;-45
2022/02/01 01:02:09;;;;;;;;;;;1.70;78.90;;;;;;5024195;28;92172;-45
2022/02/01 01:04:34;;;;;;;;;;;1.70;78.90;;;;;;5020242;28;94663;-45
2022/02/01 01:07:00;;;;;;;;;;;1.70;78.90;;;;;;5020662;28;92212;-44
2022/02/01 01:09:26;;;;;;;;;;;1.70;78.90;;;;;;5021434;28;92342;-45
2022/02/01 01:11:55;;;;;;;;;;;1.70;79.50;;;;;;5020205;28;94334;-45
2022/02/01 01:17:40;;;;;;;;;;;1.70;78.90;;;;;;5020486;28;92925;-45
2022/02/01 01:44:26;;;;;;;;;;;1.60;78.90;;;;;;5019889;28;92984;-44
2022/02/01 01:55:10;;;;;;;;;;;1.60;78.90;;;;;;5018380;28;92217;-45
2022/02/01 01:57:35;;;;;;;;;;;1.60;78.90;;;;;;5020001;28;92136;-46
2022/02/01 02:00:01;;;;;;;;;;;1.60;78.90;;;;;;5020005;28;92910;-46
2022/02/01 02:02:26;;;;;;;;;;;1.60;78.90;;;;;;5019802;28;93766;-45
2022/02/01 02:04:52;;;;;;;;;;;1.60;78.90;;;;;;5019771;28;91924;-45
2022/02/01 02:07:18;;;;;;;;;;;1.60;78.90;;;;;;5019831;28;93711;-47
2022/02/01 02:09:44;;;;;;;;;;;1.60;78.80;;;;;;5021755;28;95731;-45
2022/02/01 02:12:16;;;;;;;;;;;1.60;78.80;;;;;;5019831;28;95284;-46
2022/02/01 02:14:51;;;;;;;;;;;1.60;78.70;;;;;;5019166;28;94472;-46
2022/02/01 02:17:17;;;;;;;;;;;1.60;78.70;;;;;;5022056;28;92125;-45
2022/02/01 02:19:42;;;;;;;;;;;1.60;78.60;;;;;;5023485;28;94065;-44
2022/02/01 02:22:08;;;;;;;;;;;1.60;78.60;;;;;;5022902;28;94402;-45
2022/02/01 02:24:35;;;;;;;;;;;1.60;78.70;;;;;;5023262;28;92154;-48
2022/02/01 02:27:01;;;;;;;;;;;1.50;78.70;;;;;;5023833;28;93695;-46
2022/02/01 02:29:27;;;;;;;;;;;1.50;78.60;;;;;;5022427;28;94913;-45
2022/02/01 02:31:53;;;;;;;;;;;1.50;78.60;;;;;;5024838;28;92289;-45
2022/02/01 02:34:19;;;;;;;;;;;1.50;78.60;;;;;;5022258;28;93970;-48
2022/02/01 02:36:51;;;;;;;;;;;1.50;78.50;;;;;;5023174;28;92202;-44
2022/02/01 02:42:29;;;;;;;;;;;1.50;78.60;;;;;;5021979;28;93100;-48
2022/02/01 02:47:26;;;;;;;;;;;1.60;78.70;;;;;;5021993;28;92422;-44
2022/02/01 02:49:51;;;;;;;;;;;1.50;78.70;;;;;;5022399;28;94786;-45
2022/02/01 02:52:17;;;;;;;;;;;1.50;78.60;;;;;;5022985;28;91165;-46
2022/02/01 02:54:42;;;;;;;;;;;1.50;78.60;;;;;;5025575;28;93026;-45
2022/02/01 02:57:08;;;;;;;;;;;1.50;78.70;;;;;;5022704;28;92246;-47
2022/02/01 02:59:34;;;;;;;;;;;1.50;78.60;;;;;;5022378;28;93477;-46
2022/02/01 03:02:00;;;;;;;;;;;1.50;78.60;;;;;;5022243;28;94597;-47
2022/02/01 03:04:27;;;;;;;;;;;1.50;78.60;;;;;;5022644;28;92120;-45
2022/02/01 03:06:54;;;;;;;;;;;1.50;78.60;;;;;;5022303;28;94194;-45
2022/02/01 03:09:21;;;;;;;;;;;1.50;78.70;;;;;;5022089;28;94463;-45
2022/02/01 03:11:47;;;;;;;;;;;1.50;78.70;;;;;;5022508;28;92125;-47
2022/02/01 03:14:23;;;;;;;;;;;1.50;78.70;;;;;;5022682;28;93925;-45
2022/02/01 03:21:59;;;;;;;;;;;1.50;78.70;;;;;;5019383;28;92249;-46
2022/02/01 03:24:24;;;;;;;;;;;1.50;78.60;;;;;;5021711;28;93094;-47
2022/02/01 03:26:50;;;;;;;;;;;1.50;78.60;;;;;;5022363;28;94288;-46
2022/02/01 03:29:15;;;;;;;;;;;1.50;78.60;;;;;;5020433;28;93791;-45
2022/02/01 03:31:41;;;;;;;;;;;1.50;78.60;;;;;;5022246;28;92178;-47
2022/02/01 03:34:06;;;;;;;;;;;1.50;78.70;;;;;;5022394;28;92327;-43
2022/02/01 03:36:32;;;;;;;;;;;1.40;78.60;;;;;;5021828;28;94764;-45
2022/02/01 03:38:58;;;;;;;;;;;1.50;78.60;;;;;;5025268;28;92035;-44
2022/02/01 03:41:24;;;;;;;;;;;1.50;78.60;;;;;;5021642;28;93873;-45
2022/02/01 03:43:50;;;;;;;;;;;1.50;78.50;;;;;;5022081;28;92141;-45
2022/02/01 03:46:16;;;;;;;;;;;1.50;78.50;;;;;;5022042;28;93154;-46
2022/02/01 03:48:41;;;;;;;;;;;1.40;78.50;;;;;;5020747;28;95488;-46
2022/02/01 03:51:08;;;;;;;;;;;1.50;78.50;;;;;;5022118;28;92320;-45
2022/02/01 03:53:34;;;;;;;;;;;1.40;78.50;;;;;;5021858;28;94315;-46
2022/02/01 03:56:00;;;;;;;;;;;1.40;78.50;;;;;;5021144;28;94630;-45
2022/02/01 03:58:26;;;;;;;;;;;1.40;78.50;;;;;;5025012;28;92273;-46
2022/02/01 04:00:51;;;;;;;;;;;1.40;78.50;;;;;;5021164;28;94808;-45
2022/02/01 04:03:17;;;;;;;;;;;1.40;78.50;;;;;;5021582;28;93245;-45
2022/02/01 04:05:42;;;;;;;;;;;1.40;78.50;;;;;;5022477;28;93915;-45
2022/02/01 04:08:08;;;;;;;;;;;1.40;78.40;;;;;;5021004;28;94690;-45
2022/02/01 04:10:33;;;;;;;;;;;1.40;78.40;;;;;;5021701;28;91952;-46
2022/02/01 04:13:01;;;;;;;;;;;1.40;78.40;;;;;;5020962;28;93690;-46
2022/02/01 04:15:27;;;;;;;;;;;1.40;78.50;;;;;;5020936;28;94654;-46
2022/02/01 04:17:54;;;;;;;;;;;1.40;78.40;;;;;;5021551;28;92087;-44
2022/02/01 04:20:20;;;;;;;;;;;1.40;78.40;;;;;;5024383;28;92916;-44
2022/02/01 04:22:45;;;;;;;;;;;1.40;78.50;;;;;;5020070;28;92220;-45
2022/02/01 04:25:11;;;;;;;;;;;1.40;78.50;;;;;;5021590;28;94524;-45
2022/02/01 04:27:38;;;;;;;;;;;1.40;78.40;;;;;;5020795;28;93165;-46
2022/02/01 04:30:08;;;;;;;;;;;1.40;78.30;;;;;;5021865;28;91424;-45
2022/02/01 04:32:34;;;;;;;;;;;1.40;78.40;;;;;;5021589;28;91940;-45
2022/02/01 04:34:59;;;;;;;;;;;1.40;78.30;;;;;;5020799;28;94437;-44
2022/02/01 04:37:26;;;;;;;;;;;1.40;78.20;;;;;;5020556;28;93119;-46
2022/02/01 04:39:52;;;;;;;;;;;1.40;78.20;;;;;;5020781;28;94793;-44
2022/02/01 04:42:17;;;;;;;;;;;1.40;78.10;;;;;;5023261;28;96059;-45
2022/02/01 04:44:43;;;;;;;;;;;1.40;78.20;;;;;;5021203;28;93387;-45
2022/02/01 04:47:08;;;;;;;;;;;1.40;78.30;;;;;;5020691;28;94368;-45
2022/02/01 04:49:34;;;;;;;;;;;1.40;78.30;;;;;;5020967;28;92220;-45
2022/02/01 04:51:59;;;;;;;;;;;1.40;78.20;;;;;;5020961;28;93903;-47
2022/02/01 04:54:25;;;;;;;;;;;1.40;78.10;;;;;;5021022;28;93892;-47
2022/02/01 04:56:51;;;;;;;;;;;1.30;78.10;;;;;;5020805;28;92181;-47
2022/02/01 04:59:16;;;;;;;;;;;1.30;78.00;;;;;;5020978;28;94169;-45
2022/02/01 05:01:42;;;;;;;;;;;1.30;78.10;;;;;;5019539;28;95444;-44
2022/02/01 05:04:08;;;;;;;;;;;1.30;78.20;;;;;;5023716;28;92879;-44
2022/02/01 05:06:34;;;;;;;;;;;1.40;78.30;;;;;;5020014;28;94407;-45
2022/02/01 05:09:00;;;;;;;;;;;1.30;78.20;;;;;;5020768;28;92246;-45
2022/02/01 05:11:26;;;;;;;;;;;1.30;78.30;;;;;;5020711;28;93956;-45
2022/02/01 05:14:05;;;;;;;;;;;1.30;78.30;;;;;;5020018;28;94299;-46
2022/02/01 05:19:16;;;;;;;;;;;1.30;78.40;;;;;;5019230;28;91921;-47
2022/02/01 05:21:43;;;;;;;;;;;1.30;78.40;;;;;;5020179;28;94766;-45
2022/02/01 05:24:11;;;;;;;;;;;1.30;78.40;;;;;;5020571;28;92148;-45
2022/02/01 05:26:37;;;;;;;;;;;1.30;78.40;;;;;;5022369;28;93966;-45
2022/02/01 05:29:03;;;;;;;;;;;1.30;78.40;;;;;;5020360;28;92181;-44
2022/02/01 05:31:29;;;;;;;;;;;1.30;78.40;;;;;;5020468;28;93819;-46
2022/02/01 05:33:54;;;;;;;;;;;1.30;78.40;;;;;;5019741;28;94568;-44
2022/02/01 05:36:20;;;;;;;;;;;1.30;78.30;;;;;;5020348;28;93212;-45
2022/02/01 05:38:49;;;;;;;;;;;1.30;78.30;;;;;;5020406;28;93996;-46
2022/02/01 05:41:15;;;;;;;;;;;1.30;78.30;;;;;;5018926;28;94481;-45
2022/02/01 05:43:42;;;;;;;;;;;1.30;78.30;;;;;;5020672;28;91246;-45
2022/02/01 05:46:08;;;;;;;;;;;1.30;78.30;;;;;;5020203;28;93195;-45
2022/02/01 05:48:34;;;;;;;;;;;1.30;78.30;;;;;;5022707;28;94212;-44
2022/02/01 05:51:00;;;;;;;;;;;1.30;78.30;;;;;;5018769;28;93963;-45
2022/02/01 05:53:26;;;;;;;;;;;1.30;78.30;;;;;;5019704;28;94823;-45
2022/02/01 05:55:52;;;;;;;;;;;1.30;78.30;;;;;;5020118;28;92193;-46
2022/02/01 05:58:18;;;;;;;;;;;1.30;78.30;;;;;;5020089;28;94152;-45
2022/02/01 06:00:43;;;;;;;;;;;1.30;78.30;;;;;;5019479;28;94279;-46
2022/02/01 06:03:09;;;;;;;;;;;1.30;78.30;;;;;;5019801;28;92064;-45
2022/02/01 06:05:34;;;;;;;;;;;1.30;78.30;;;;;;5020000;28;92939;-45
2022/02/01 06:08:00;;;;;;;;;;;1.30;78.40;;;;;;5022887;28;93175;-44
2022/02/01 06:10:26;;;;;;;;;;;1.30;78.40;;;;;;5019991;28;93116;-44
2022/02/01 06:12:51;;;;;;;;;;;1.20;78.30;;;;;;5019270;28;93945;-44
2022/02/01 06:15:27;;;;;;;;;;;1.30;78.30;;;;;;5018812;28;93272;-44
2022/02/01 06:17:53;;;;;;;;;;;1.30;78.20;;;;;;5019793;28;93939;-45
2022/02/01 06:20:18;;;;;;;;;;;1.30;78.10;;;;;;5019250;28;95045;-45
2022/02/01 06:22:44;;;;;;;;;;;1.30;78.10;;;;;;5019813;28;92157;-44
2022/02/01 06:25:10;;;;;;;;;;;1.30;78.00;;;;;;5019633;28;93223;-44
2022/02/01 06:27:36;;;;;;;;;;;1.30;78.10;;;;;;5018807;28;94586;-45
2022/02/01 06:30:03;;;;;;;;;;;1.30;78.10;;;;;;5022736;28;92179;-44
2022/02/01 06:32:35;;;;;;;;;;;1.30;78.00;;;;;;5019418;28;93559;-45
2022/02/01 06:35:02;;;;;;;;;;;1.20;78.00;;;;;;5019543;28;92005;-44
2022/02/01 06:37:27;;;;;;;;;;;1.30;78.10;;;;;;5019412;28;93846;-45
2022/02/01 06:39:53;;;;;;;;;;;1.30;78.10;;;;;;5018594;28;94136;-45
2022/02/01 06:42:18;;;;;;;;;;;1.30;78.10;;;;;;5018941;28;92195;-45
2022/02/01 06:44:44;;;;;;;;;;;1.30;78.20;;;;;;5019748;28;93901;-45
2022/02/01 06:47:09;;;;;;;;;;;1.30;78.20;;;;;;5018705;28;94484;-44
2022/02/01 06:49:35;;;;;;;;;;;1.30;78.20;;;;;;5019314;28;92080;-44
2022/02/01 06:52:01;;;;;;;;;;;1.20;78.20;;;;;;5022141;28;92324;-44
2022/02/01 06:54:27;;;;;;;;;;;1.30;78.30;;;;;;5019316;28;92156;-43
2022/02/01 06:56:53;;;;;;;;;;;1.20;78.20;;;;;;5019785;28;93522;-44
2022/02/01 06:59:18;;;;;;;;;;;1.20;78.30;;;;;;5018843;28;94142;-45
2022/02/01 07:01:44;;;;;;;;;;;1.30;78.30;;;;;;5019251;28;91922;-45
2022/02/01 07:04:09;;;;;;;;;;;1.20;78.30;;;;;;5022031;28;93871;-45
2022/02/01 07:06:35;;;;;;;;;;;1.20;78.40;;;;;;5021947;28;93868;-44
2022/02/01 07:09:02;;;;;;;;;;;1.20;78.40;;;;;;5022617;28;92164;-45
2022/02/01 07:11:28;;;;;;;;;;;1.30;78.50;;;;;;5022405;28;93790;-44
2022/02/01 07:13:53;;;;;;;;;;;1.20;78.50;;;;;;5024977;28;94387;-46
2022/02/01 07:16:19;;;;;;;;;;;1.20;78.50;;;;;;5022696;28;92283;-46
2022/02/01 07:18:45;;;;;;;;;;;1.20;78.50;;;;;;5021838;28;94465;-45
2022/02/01 07:21:11;;;;;;;;;;;1.20;78.50;;;;;;5023076;28;91183;-45
2022/02/01 07:23:38;;;;;;;;;;;1.20;78.60;;;;;;5022547;28;93426;-45
2022/02/01 07:26:03;;;;;;;;;;;1.20;78.70;;;;;;5021789;28;94383;-45
2022/02/01 07:28:30;;;;;;;;;;;1.20;78.70;;;;;;5021804;28;93150;-46
2022/02/01 07:30:56;;;;;;;;;;;1.20;78.70;;;;;;5022306;28;94581;-46
2022/02/01 07:33:23;;;;;;;;;;;1.30;78.70;;;;;;5021977;28;94393;-44
2022/02/01 07:35:49;;;;;;;;;;;1.20;78.80;;;;;;5025267;28;92071;-45
2022/02/01 07:38:18;;;;;;;;;;;1.20;78.70;;;;;;5021618;28;93808;-45
2022/02/01 07:40:44;;;;;;;;;;;1.20;78.80;;;;;;5021631;28;92185;-44
2022/02/01 07:43:09;;;;;;;;;;;1.20;78.80;;;;;;5021952;28;93702;-44
2022/02/01 07:45:38;;;;;;;;;;;1.20;78.70;;;;;;5021881;28;93055;-44
2022/02/01 07:48:03;;;;;;;;;;;1.20;78.90;;;;;;5021967;28;92155;-45
2022/02/01 07:50:29;;;;;;;;;;;1.20;78.70;;;;;;5021963;28;94236;-44
2022/02/01 07:52:55;;;;;;;;;;;1.20;78.80;;;;;;5020757;28;95627;-44
2022/02/01 07:55:20;;;;;;;;;;;1.20;78.80;;;;;;5021883;28;92205;-44
2022/02/01 07:57:46;;;;;;;;;;;1.20;78.90;;;;;;5024450;28;93929;-45
2022/02/01 08:00:12;;;;;;;;;;;1.20;78.90;;;;;;5021897;28;92168;-44
2022/02/01 08:02:38;;;;;;;;;;;1.20;78.90;;;;;;5021715;28;94366;-46
2022/02/01 08:05:03;;;;;;;;;;;1.20;79.50;;;;;;5021151;28;94435;-44
2022/02/01 08:07:29;;;;;;;;;;;1.30;79.00;;;;;;5021578;28;92190;-45
2022/02/01 08:09:59;;;;;;;;;;;1.20;79.00;;;;;;5022111;28;93841;-45
2022/02/01 08:20:24;;;;;;;;;;;1.20;79.00;;;;;;5021696;28;92134;-44
2022/02/01 08:23:02;;;;;;;;;;;1.20;79.00;;;;;;5021406;28;93718;-45
2022/02/01 08:25:28;;;;;;;;;;;1.20;79.00;;;;;;5020960;28;94077;-45
2022/02/01 08:27:55;;;;;;;;;;;1.20;79.00;;;;;;5021386;28;92216;-45
2022/02/01 08:30:21;;;;;;;;;;;1.20;79.00;;;;;;5021257;28;94151;-44
2022/02/01 08:32:47;;;;;;;;;;;1.20;78.90;;;;;;5020626;28;94817;-46
2022/02/01 08:35:13;;;;;;;;;;;1.30;78.90;;;;;;5021456;28;91294;-46
2022/02/01 08:37:38;;;;;;;;;;;1.30;79.00;;;;;;5021317;28;93271;-44
2022/02/01 08:40:04;;;;;;;;;;;1.20;79.00;;;;;;5023812;28;94401;-44
2022/02/01 08:42:30;;;;;;;;;;;1.20;79.10;;;;;;5020043;28;93662;-45
2022/02/01 08:44:56;;;;;;;;;;;1.30;79.20;;;;;;5020769;28;93803;-45
2022/02/01 08:47:22;;;;;;;;;;;1.30;79.10;;;;;;5021025;28;92135;-45
2022/02/01 08:49:47;;;;;;;;;;;1.30;79.10;;;;;;5020852;28;93724;-45
2022/02/01 08:52:23;;;;;;;;;;;1.30;79.10;;;;;;5020455;28;94835;-45
2022/02/01 08:54:51;;;;;;;;;;;1.30;79.10;;;;;;5021012;28;92019;-45
2022/02/01 08:57:25;;;;;;;;;;;1.30;79.10;;;;;;5020976;28;93977;-44
2022/02/01 08:59:52;;;;;;;;;;;1.30;79.30;;;;;;5021047;28;94025;-44
2022/02/01 09:02:19;;;;;;;;;;;1.30;79.30;;;;;;5023931;28;92162;-45
2022/02/01 09:04:44;;;;;;;;;;;1.30;79.10;;;;;;5020517;28;94113;-45
2022/02/01 09:07:10;;;;;;;;;;;1.30;79.20;;;;;;5020236;28;93221;-45
2022/02/01 09:09:36;;;;;;;;;;;1.30;79.20;;;;;;5020975;28;95004;-44
2022/02/01 09:12:02;;;;;;;;;;;1.30;79.20;;;;;;5020225;28;94692;-45
2022/02/01 09:14:28;;;;;;;;;;;1.30;79.20;;;;;;5020578;28;92153;-45
2022/02/01 09:16:54;;;;;;;;;;;1.30;79.20;;;;;;5020686;28;93613;-46
2022/02/01 09:19:19;;;;;;;;;;;1.30;79.20;;;;;;5020352;28;95171;-45
2022/02/01 09:21:45;;;;;;;;;;;1.30;79.20;;;;;;5020431;28;92124;-45
2022/02/01 09:24:11;;;;;;;;;;;1.30;79.20;;;;;;5023593;28;93823;-44
2022/02/01 09:26:38;;;;;;;;;;;1.30;79.20;;;;;;5019337;28;92106;-44
2022/02/01 09:29:04;;;;;;;;;;;1.30;79.20;;;;;;5020223;28;93689;-45
2022/02/01 09:31:30;;;;;;;;;;;1.30;79.20;;;;;;5019037;28;95128;-45
2022/02/01 09:33:55;;;;;;;;;;;1.30;79.20;;;;;;5020204;28;92186;-45
2022/02/01 09:36:22;;;;;;;;;;;1.30;79.30;;;;;;5020426;28;94072;-44
2022/02/01 09:38:49;;;;;;;;;;;1.30;79.20;;;;;;5019660;28;94291;-44
2022/02/01 09:41:15;;;;;;;;;;;1.30;79.20;;;;;;5019833;28;92196;-44
2022/02/01 09:43:41;;;;;;;;;;;1.30;79.20;;;;;;5020435;28;93770;-44
2022/02/01 09:46:06;;;;;;;;;;;1.30;79.30;;;;;;5022726;28;94196;-44
2022/02/01 09:48:32;;;;;;;;;;;1.30;79.30;;;;;;5020329;28;93930;-46
2022/02/01 09:50:58;;;;;;;;;;;1.30;79.30;;;;;;5019698;28;94470;-44
2022/02/01 09:53:23;;;;;;;;;;;1.30;79.40;;;;;;5019947;28;92149;-44
2022/02/01 09:55:49;;;;;;;;;;;1.30;79.30;;;;;;5019749;28;92977;-44
2022/02/01 09:58:14;;;;;;;;;;;1.30;79.30;;;;;;5019440;28;94664;-44
2022/02/01 10:00:46;;;;;;;;;;;1.30;79.20;;;;;;5020009;28;92156;-45
2022/02/01 10:03:16;;;;;;;;;;;1.30;79.20;;;;;;5019968;28;92834;-45
2022/02/01 10:05:43;;;;;;;;;;;1.30;79.20;;;;;;5019460;28;94258;-45
2022/02/01 10:08:09;;;;;;;;;;;1.30;79.20;;;;;;5022902;28;92042;-44
2022/02/01 10:10:34;;;;;;;;;;;1.30;79.30;;;;;;5019390;28;94705;-44
2022/02/01 10:13:15;;;;;;;;;;;1.30;79.30;;;;;;5020228;28;91167;-46
2022/02/01 10:16:00;;;;;;;;;;;1.30;79.30;;;;;;5019739;28;93245;-46
2022/02/01 10:18:27;;;;;;;;;;;1.30;79.30;;;;;;5019283;28;94695;-45
2022/02/01 10:20:52;;;;;;;;;;;1.30;79.40;;;;;;5019343;28;93094;-44
2022/02/01 10:23:22;;;;;;;;;;;1.30;79.40;;;;;;5019751;28;94963;-44
2022/02/01 10:26:06;;;;;;;;;;;1.30;79.50;;;;;;5019054;28;94574;-44
2022/02/01 10:28:48;;;;;;;;;;;1.30;79.50;;;;;;5022954;28;92142;-45
2022/02/01 10:31:16;;;;;;;;;;;1.30;79.60;;;;;;5019273;28;94758;-45
2022/02/01 10:33:59;;;;;;;;;;;1.30;79.60;;;;;;5019713;28;92139;-45
2022/02/01 10:36:33;;;;;;;;;;;1.30;79.50;;;;;;5019666;28;93751;-45
2022/02/01 10:39:07;;;;;;;;;;;1.40;79.60;;;;;;5023042;28;93964;-46
2022/02/01 10:41:33;;;;;;;;;;;1.40;79.50;;;;;;5022677;28;92110;-45
2022/02/01 10:43:59;;;;;;;;;;;1.40;79.60;;;;;;5023145;28;93906;-44
2022/02/01 10:46:25;;;;;;;;;;;1.40;79.50;;;;;;5021719;28;95929;-44
2022/02/01 10:48:53;;;;;;;;;;;1.40;79.50;;;;;;5022870;28;92019;-44
2022/02/01 10:51:21;;;;;;;;;;;1.40;79.50;;;;;;5025135;28;93625;-44
2022/02/01 10:53:47;;;;;;;;;;;1.40;79.50;;;;;;5023009;28;92202;-45
2022/02/01 10:56:14;;;;;;;;;;;1.40;79.50;;;;;;5022787;28;94163;-45
2022/02/01 10:58:40;;;;;;;;;;;1.40;79.40;;;;;;5022286;28;94811;-46
2022/02/01 11:01:06;;;;;;;;;;;1.40;79.40;;;;;;5022622;28;92280;-46
2022/02/01 11:03:32;;;;;;;;;;;1.40;79.50;;;;;;5022938;28;93927;-45
2022/02/01 11:06:00;;;;;;;;;;;1.40;79.60;;;;;;5022264;28;93496;-46
2022/02/01 11:08:29;;;;;;;;;;;1.40;79.50;;;;;;5022449;28;92105;-44
2022/02/01 11:10:56;;;;;;;;;;;1.40;79.50;;;;;;5022026;28;93983;-45
2022/02/01 11:13:22;;;;;;;;;;;1.40;79.40;;;;;;5025196;28;94840;-44
2022/02/01 11:15:58;;;;;;;;;;;1.40;79.30;;;;;;5022709;28;93870;-45
2022/02/01 11:18:26;;;;;;;;;;;1.40;79.20;;;;;;5021798;28;94241;-44
2022/02/01 11:20:52;;;;;;;;;;;1.50;79.10;;;;;;5022648;28;92179;-44
2022/02/01 11:23:22;;;;;;;;;;;1.50;78.40;;;;;;5022457;28;93664;-45
2022/02/01 11:25:51;;;;;;;;;;;1.50;78.60;;;;;;5021841;28;94271;-48
2022/02/01 11:31:27;;;;;;;;;;;1.50;78.20;;;;;;5005221;28;92071;-44
2022/02/01 11:33:52;;;;;;;;;;;1.50;78.60;;;;;;5021860;28;94638;-45
2022/02/01 11:36:18;;;;;;;;;;;1.50;77.80;;;;;;5024551;28;93131;-44
2022/02/01 11:38:52;;;;;;;;;;;1.50;78.50;;;;;;5021627;28;94432;-44
2022/02/01 11:41:29;;;;;;;;;;;1.50;78.60;;;;;;5021375;28;93745;-45
2022/02/01 11:44:05;;;;;;;;;;;1.50;78.20;;;;;;5022284;28;92819;-44
2022/02/01 11:46:30;;;;;;;;;;;1.40;78.20;;;;;;5021708;28;93706;-45
2022/02/01 11:48:56;;;;;;;;;;;1.50;78.80;;;;;;5020694;28;92348;-44
2022/02/01 11:51:24;;;;;;;;;;;1.50;78.50;;;;;;5021851;28;93837;-47
2022/02/01 11:53:55;;;;;;;;;;;1.50;78.50;;;;;;5021705;28;93812;-45
2022/02/01 11:56:30;;;;;;;;;;;1.50;78.60;;;;;;5022242;28;92009;-45
2022/02/01 11:58:59;;;;;;;;;;;1.50;78.70;;;;;;5024812;28;94151;-44
2022/02/01 12:01:28;;;;;;;;;;;1.50;78.70;;;;;;5021118;28;93139;-44
2022/02/01 12:04:06;;;;;;;;;;;1.50;78.20;;;;;;5021796;28;95165;-44
2022/02/01 12:06:46;;;;;;;;;;;1.50;78.60;;;;;;5021148;28;94840;-44
2022/02/01 12:09:19;;;;;;;;;;;1.50;78.50;;;;;;5021695;28;92235;-44
2022/02/01 12:11:45;;;;;;;;;;;1.50;78.00;;;;;;5021850;28;93868;-45
2022/02/01 12:14:11;;;;;;;;;;;1.40;77.80;;;;;;5021147;28;95034;-45
2022/02/01 12:16:36;;;;;;;;;;;1.50;78.50;;;;;;5021477;28;92144;-45
2022/02/01 12:19:02;;;;;;;;;;;1.50;78.20;;;;;;5024398;28;93877;-44
2022/02/01 12:21:42;;;;;;;;;;;1.50;77.10;;;;;;5021525;28;92114;-45
2022/02/01 12:24:08;;;;;;;;;;;1.40;76.90;;;;;;5021673;28;93709;-46
2022/02/01 12:26:41;;;;;;;;;;;1.40;77.60;;;;;;5020382;28;93835;-47
2022/02/01 12:29:08;;;;;;;;;;;1.50;77.70;;;;;;5021444;28;92078;-46
2022/02/01 12:31:37;;;;;;;;;;;1.50;78.50;;;;;;5021231;28;93082;-45
2022/02/01 12:34:03;;;;;;;;;;;1.40;78.30;;;;;;5020876;28;94089;-44
2022/02/01 12:36:35;;;;;;;;;;;1.50;77.90;;;;;;5021174;28;92179;-44
2022/02/01 12:39:04;;;;;;;;;;;1.50;77.70;;;;;;5021195;28;94101;-44
2022/02/01 12:41:32;;;;;;;;;;;1.50;78.10;;;;;;5023216;28;94298;-45
2022/02/01 12:46:54;;;;;;;;;;;1.50;77.40;;;;;;5020633;28;93088;-45
2022/02/01 12:49:31;;;;;;;;;;;1.50;77.40;;;;;;5021071;28;91975;-45
2022/02/01 12:51:56;;;;;;;;;;;1.50;77.40;;;;;;5020538;28;93282;-45
2022/02/01 12:54:24;;;;;;;;;;;1.40;77.50;;;;;;5020207;28;94882;-44
2022/02/01 12:56:51;;;;;;;;;;;1.40;77.80;;;;;;5021297;28;92183;-46
2022/02/01 12:59:18;;;;;;;;;;;1.40;77.70;;;;;;5020923;28;93530;-44
2022/02/01 13:01:44;;;;;;;;;;;1.40;77.50;;;;;;5020244;28;94562;-45
2022/02/01 13:04:19;;;;;;;;;;;1.40;77.50;;;;;;5024114;28;92190;-45
2022/02/01 13:06:46;;;;;;;;;;;1.40;77.50;;;;;;5020311;28;94567;-46
2022/02/01 13:14:44;;;;;;;;;;;1.50;77.80;;;;;;5020552;28;92321;-44
2022/02/01 13:20:12;;;;;;;;;;;1.50;78.10;;;;;;5010891;28;94253;-45
2022/02/01 13:22:50;;;;;;;;;;;1.50;77.40;;;;;;5020166;28;94834;-44
2022/02/01 13:25:15;;;;;;;;;;;1.50;77.60;;;;;;5020366;28;91971;-46
2022/02/01 13:27:41;;;;;;;;;;;1.40;77.50;;;;;;5023071;28;92326;-46
2022/02/01 13:30:07;;;;;;;;;;;1.40;77.40;;;;;;5020260;28;92104;-45
2022/02/01 13:32:34;;;;;;;;;;;1.40;77.40;;;;;;5020478;28;94263;-44
2022/02/01 13:35:01;;;;;;;;;;;1.40;77.60;;;;;;5020585;28;93421;-45
2022/02/01 13:37:27;;;;;;;;;;;1.40;77.60;;;;;;5020094;28;92002;-45
2022/02/01 13:39:52;;;;;;;;;;;1.40;77.50;;;;;;5020204;28;93608;-45
2022/02/01 13:42:18;;;;;;;;;;;1.40;77.60;;;;;;5018916;28;95423;-45
2022/02/01 13:44:53;;;;;;;;;;;1.40;77.70;;;;;;5019771;28;92004;-46
2022/02/01 13:47:19;;;;;;;;;;;1.50;78.30;;;;;;5020173;28;93991;-45
2022/02/01 13:49:44;;;;;;;;;;;1.40;77.70;;;;;;5022565;28;94357;-44
2022/02/01 13:52:10;;;;;;;;;;;1.40;77.80;;;;;;5020019;28;94475;-48
2022/02/01 13:54:45;;;;;;;;;;;1.40;77.80;;;;;;5019985;28;92254;-44
2022/02/01 13:57:13;;;;;;;;;;;1.40;77.90;;;;;;5019913;28;91995;-47
2022/02/01 13:59:39;;;;;;;;;;;1.40;77.90;;;;;;5020335;28;94112;-45
2022/02/01 14:02:05;;;;;;;;;;;1.40;77.80;;;;;;5019459;28;93441;-46
2022/02/01 14:04:51;;;;;;;;;;;1.40;77.90;;;;;;5019955;28;92226;-45
2022/02/01 14:07:30;;;;;;;;;;;1.40;77.90;;;;;;5019206;28;94171;-45
2022/02/01 14:26:44;;;;;;;;;;;1.40;77.90;;;;;;5004417;28;91327;-45
2022/02/01 14:34:26;;;;;;;;;;;1.40;78.00;;;;;;5028320;28;92998;-45
2022/02/01 14:36:57;;;;;;;;;;;1.40;78.10;;;;;;5025669;28;94452;-46
2022/02/01 14:44:43;;;;;;;;;;;1.40;78.00;;;;;;5026094;28;92313;-45
2022/02/01 14:47:11;;;;;;;;;;;1.40;78.10;;;;;;5025943;28;92036;-45
2022/02/01 14:49:37;;;;;;;;;;;1.40;78.00;;;;;;5025986;28;92845;-45
2022/02/01 14:52:05;;;;;;;;;;;1.40;78.00;;;;;;5026082;28;93611;-45
2022/02/01 14:54:35;;;;;;;;;;;1.40;78.10;;;;;;5026025;28;92165;-46
2022/02/01 15:13:16;;;;;;;;;;;1.40;78.20;;;;;;5025675;28;92288;-46
2022/02/01 15:15:41;;;;;;;;;;;1.40;78.10;;;;;;5025672;28;91969;-45
2022/02/01 15:18:07;;;;;;;;;;;1.40;78.20;;;;;;5026091;28;92662;-45
2022/02/01 15:20:34;;;;;;;;;;;1.40;78.20;;;;;;5028110;28;94737;-44
2022/02/01 15:22:59;;;;;;;;;;;1.40;78.10;;;;;;5025092;28;93810;-44
2022/02/01 15:25:25;;;;;;;;;;;1.40;78.30;;;;;;5021195;28;94538;-44
2022/02/01 15:27:50;;;;;;;;;;;1.30;78.10;;;;;;5022253;28;92248;-45
2022/02/01 15:30:16;;;;;;;;;;;1.40;78.20;;;;;;5022569;28;93092;-47
2022/02/01 15:32:42;;;;;;;;;;;1.40;78.30;;;;;;5021667;28;93487;-45
2022/02/01 15:35:13;;;;;;;;;;;1.40;78.10;;;;;;5022454;28;92145;-45
2022/02/01 15:37:40;;;;;;;;;;;1.40;78.20;;;;;;5022012;28;93786;-45
2022/02/01 15:54:25;;;;;;;;;;;1.40;78.20;;;;;;5019420;28;91920;-45
2022/02/01 15:57:26;;;;;;;;;;;1.40;78.20;;;;;;5022011;28;92071;-45
2022/02/01 15:59:23;;;;;;;;;;;1.40;78.20;;;;;;5020676;28;93013;-45
2022/02/01 16:04:52;;;;;;;;;;;1.30;78.20;;;;;;5016043;28;94312;-46
2022/02/01 16:07:18;;;;;;;;;;;1.40;78.20;;;;;;5024384;28;94242;-44
2022/02/01 16:09:52;;;;;;;;;;;1.30;78.30;;;;;;5022117;28;91563;-45
2022/02/01 16:12:26;;;;;;;;;;;1.30;78.20;;;;;;5021772;28;92953;-45
2022/02/01 16:14:51;;;;;;;;;;;1.40;78.30;;;;;;5021135;28;94670;-45
2022/02/01 16:17:17;;;;;;;;;;;1.30;78.20;;;;;;5020709;28;93011;-44
2022/02/01 16:19:42;;;;;;;;;;;1.30;78.30;;;;;;5021607;28;94342;-45
2022/02/01 16:22:08;;;;;;;;;;;1.30;78.30;;;;;;5020779;28;94727;-44
2022/02/01 16:24:36;;;;;;;;;;;1.30;78.20;;;;;;5021784;28;92169;-45
2022/02/01 16:27:03;;;;;;;;;;;1.30;78.20;;;;;;5021359;28;93786;-45
2022/02/01 16:29:29;;;;;;;;;;;1.30;78.20;;;;;;5023619;28;94607;-44
2022/02/01 16:31:54;;;;;;;;;;;1.30;78.20;;;;;;5020956;28;94223;-46
2022/02/01 16:34:20;;;;;;;;;;;1.30;78.10;;;;;;5021157;28;94357;-46
2022/02/01 16:36:47;;;;;;;;;;;1.30;78.20;;;;;;5020737;28;92153;-44
2022/02/01 16:39:13;;;;;;;;;;;1.30;78.20;;;;;;5021338;28;93694;-45
2022/02/01 16:41:38;;;;;;;;;;;1.30;78.20;;;;;;5019701;28;95459;-45
2022/02/01 16:44:04;;;;;;;;;;;1.30;78.20;;;;;;5021283;28;92148;-44
2022/02/01 16:46:35;;;;;;;;;;;1.30;78.30;;;;;;5021061;28;93778;-44
2022/02/01 16:49:01;;;;;;;;;;;1.30;78.30;;;;;;5023784;28;94413;-47
2022/02/01 16:51:27;;;;;;;;;;;1.30;78.20;;;;;;5021026;28;93773;-47
2022/02/01 16:53:56;;;;;;;;;;;1.30;78.20;;;;;;5020568;28;94337;-46
2022/02/01 16:56:35;;;;;;;;;;;1.30;78.30;;;;;;5021034;28;92307;-45
2022/02/01 16:59:09;;;;;;;;;;;1.30;78.80;;;;;;5021285;28;93774;-44
2022/02/01 17:01:36;;;;;;;;;;;1.30;78.30;;;;;;5020663;28;93570;-45
2022/02/01 17:04:01;;;;;;;;;;;1.30;78.30;;;;;;5020988;28;92190;-44
2022/02/01 17:06:27;;;;;;;;;;;1.30;78.30;;;;;;5020399;28;93995;-46
2022/02/01 17:08:52;;;;;;;;;;;1.30;78.40;;;;;;5020379;28;94793;-44
2022/02/01 17:17:03;;;;;;;;;;;1.30;78.50;;;;;;5020843;28;92190;-44